createdAt,value
2023-05-10T00:00:34.824Z,10.00
2023-05-10T00:03:01.562Z,10.00
2023-05-10T00:05:28.427Z,9.90
2023-05-10T00:07:55.114Z,9.90
2023-05-10T00:10:21.853Z,9.80
2023-05-10T00:12:48.568Z,9.80
2023-05-10T00:15:15.490Z,9.80
2023-05-10T00:17:42.207Z,9.70
2023-05-10T00:20:09.679Z,9.80
2023-05-10T00:22:36.443Z,9.70
2023-05-10T00:25:03.225Z,9.60
2023-05-10T00:27:29.938Z,9.60
2023-05-10T00:29:56.606Z,9.60
2023-05-10T00:32:23.448Z,9.50
2023-05-10T00:34:50.201Z,9.50
2023-05-10T00:37:16.977Z,9.60
2023-05-10T00:39:43.653Z,9.50
2023-05-10T00:42:10.649Z,9.50
2023-05-10T00:44:37.356Z,9.50
2023-05-10T00:47:04.138Z,9.60
2023-05-10T00:49:31.020Z,9.50
2023-05-10T00:51:58.106Z,9.40
2023-05-10T00:54:24.940Z,9.40
2023-05-10T00:56:52.053Z,9.50
2023-05-10T00:59:19.180Z,9.40
2023-05-10T01:01:46.611Z,9.40
2023-05-10T01:04:14.478Z,9.40
2023-05-10T01:06:41.730Z,9.30
2023-05-10T01:09:08.637Z,9.30
2023-05-10T01:11:39.578Z,9.30
2023-05-10T01:14:06.725Z,9.30
2023-05-10T01:16:35.611Z,9.30
2023-05-10T01:19:02.464Z,9.20
2023-05-10T01:21:33.055Z,9.20
2023-05-10T01:24:11.668Z,9.10
2023-05-10T01:26:38.394Z,9.20
2023-05-10T01:29:25.515Z,9.20
2023-05-10T01:31:52.186Z,9.10
2023-05-10T01:34:22.131Z,9.00
2023-05-10T01:36:48.784Z,9.10
2023-05-10T01:39:22.327Z,8.90
2023-05-10T01:41:52.510Z,9.00
2023-05-10T01:44:24.491Z,8.80
2023-05-10T01:46:58.739Z,8.80
2023-05-10T01:49:27.951Z,8.80
2023-05-10T01:51:58.049Z,8.70
2023-05-10T01:54:25.487Z,8.80
2023-05-10T01:57:01.179Z,8.70
2023-05-10T01:59:30.646Z,8.70
2023-05-10T02:01:59.584Z,8.80
2023-05-10T02:04:26.832Z,8.80
2023-05-10T02:06:55.085Z,8.70
2023-05-10T02:09:22.631Z,8.70
2023-05-10T02:11:50.128Z,8.60
2023-05-10T02:14:17.805Z,8.60
2023-05-10T02:16:46.106Z,8.60
2023-05-10T02:19:14.498Z,8.60
2023-05-10T02:21:42.344Z,8.70
2023-05-10T02:24:09.713Z,8.70
2023-05-10T02:26:37.063Z,8.80
2023-05-10T02:29:04.732Z,8.70
2023-05-10T02:31:35.052Z,8.70
2023-05-10T02:34:02.471Z,8.80
2023-05-10T02:36:29.806Z,8.80
2023-05-10T02:38:56.985Z,8.60
2023-05-10T02:41:25.260Z,8.70
2023-05-10T02:43:53.188Z,8.80
2023-05-10T02:46:20.102Z,8.90
2023-05-10T02:48:46.804Z,8.90
2023-05-10T02:51:14.932Z,9.00
2023-05-10T02:53:43.675Z,9.20
2023-05-10T02:56:16.837Z,9.20
2023-05-10T02:58:43.641Z,9.40
2023-05-10T03:01:10.679Z,9.50
2023-05-10T03:03:37.398Z,9.50
2023-05-10T03:06:04.526Z,9.60
2023-05-10T03:08:31.299Z,9.60
2023-05-10T03:11:16.674Z,9.70
2023-05-10T03:14:02.240Z,9.70
2023-05-10T03:16:34.049Z,9.80
2023-05-10T03:19:07.716Z,10.00
2023-05-10T03:21:36.928Z,10.10
2023-05-10T03:24:07.931Z,10.10
2023-05-10T03:26:35.034Z,10.10
2023-05-10T03:29:02.151Z,10.10
2023-05-10T03:31:29.035Z,10.30
2023-05-10T03:33:55.894Z,10.50
2023-05-10T03:36:22.667Z,10.70
2023-05-10T03:38:49.378Z,10.70
2023-05-10T03:41:16.116Z,10.90
2023-05-10T03:43:42.808Z,11.10
2023-05-10T03:46:09.568Z,11.30
2023-05-10T03:48:36.360Z,11.70
2023-05-10T03:51:03.192Z,12.10
2023-05-10T03:53:30.008Z,12.20
2023-05-10T03:55:56.706Z,12.50
2023-05-10T03:58:23.433Z,12.70
2023-05-10T04:00:50.227Z,12.90
2023-05-10T04:03:17.314Z,12.80
2023-05-10T04:05:44.222Z,12.90
2023-05-10T04:08:10.943Z,13.00
2023-05-10T04:10:37.689Z,13.00
2023-05-10T04:13:04.470Z,13.00
2023-05-10T04:15:31.193Z,13.30
2023-05-10T04:17:57.911Z,13.70
2023-05-10T04:20:24.704Z,14.00
2023-05-10T04:22:51.423Z,14.30
2023-05-10T04:25:18.087Z,14.60
2023-05-10T04:27:44.793Z,15.00
2023-05-10T04:30:12.184Z,15.40
2023-05-10T04:32:40.034Z,15.70
2023-05-10T04:35:06.930Z,15.50
2023-05-10T04:37:33.615Z,15.80
2023-05-10T04:40:01.151Z,15.90
2023-05-10T04:42:27.986Z,16.20
2023-05-10T04:44:54.941Z,16.60
2023-05-10T04:47:21.783Z,16.80
2023-05-10T04:49:48.542Z,16.90
2023-05-10T04:52:16.082Z,17.00
2023-05-10T04:54:42.733Z,17.40
2023-05-10T04:57:09.490Z,17.50
2023-05-10T04:59:37.691Z,18.00
2023-05-10T05:02:04.596Z,18.40
2023-05-10T05:04:32.116Z,18.60
2023-05-10T05:06:58.851Z,18.50
2023-05-10T05:09:25.670Z,18.40
2023-05-10T05:11:52.416Z,18.50
2023-05-10T05:14:19.169Z,18.80
2023-05-10T05:16:45.951Z,18.90
2023-05-10T05:19:12.674Z,19.00
2023-05-10T05:21:39.693Z,19.40
2023-05-10T05:24:06.768Z,19.60
2023-05-10T05:26:33.458Z,19.80
2023-05-10T05:29:00.174Z,20.00
2023-05-10T05:31:27.023Z,20.50
2023-05-10T05:33:53.999Z,20.90
2023-05-10T05:36:20.981Z,20.90
2023-05-10T05:38:47.719Z,20.50
2023-05-10T05:41:14.500Z,20.70
2023-05-10T05:43:41.283Z,20.80
2023-05-10T05:46:08.036Z,21.20
2023-05-10T05:48:34.772Z,21.90
2023-05-10T05:51:01.524Z,21.80
2023-05-10T05:53:28.273Z,21.70
2023-05-10T05:55:55.727Z,22.20
2023-05-10T05:58:22.992Z,22.30
2023-05-10T06:00:49.781Z,22.80
2023-05-10T06:03:19.069Z,23.40
2023-05-10T06:05:45.895Z,23.30
2023-05-10T06:08:12.591Z,23.40
2023-05-10T06:10:39.423Z,24.00
2023-05-10T06:13:06.273Z,23.80
2023-05-10T06:15:33.687Z,23.90
2023-05-10T06:18:00.611Z,24.20
2023-05-10T06:20:29.277Z,24.20
2023-05-10T06:22:56.002Z,24.50
2023-05-10T06:25:23.692Z,24.50
2023-05-10T06:27:53.579Z,24.60
2023-05-10T06:30:21.262Z,24.60
2023-05-10T06:32:50.168Z,25.40
2023-05-10T06:35:17.389Z,25.40
2023-05-10T06:37:44.366Z,25.50
2023-05-10T06:40:11.405Z,25.50
2023-05-10T06:42:38.882Z,26.10
2023-05-10T06:45:06.363Z,25.90
2023-05-10T06:47:33.283Z,25.70
2023-05-10T06:50:00.175Z,25.90
2023-05-10T06:52:26.861Z,25.90
2023-05-10T06:54:53.545Z,25.80
2023-05-10T06:57:31.142Z,25.90
2023-05-10T06:59:59.421Z,25.90
2023-05-10T07:02:28.716Z,26.60
2023-05-10T07:04:55.728Z,26.60
2023-05-10T07:07:22.566Z,26.40
2023-05-10T07:09:50.825Z,26.40
2023-05-10T07:12:17.760Z,26.00
2023-05-10T07:14:44.573Z,26.00
2023-05-10T07:17:11.380Z,26.30
2023-05-10T07:19:40.238Z,27.80
2023-05-10T07:22:06.939Z,27.70
2023-05-10T07:24:34.532Z,28.30
2023-05-10T07:27:01.274Z,28.40
2023-05-10T07:29:28.274Z,29.10
2023-05-10T07:31:57.881Z,28.70
2023-05-10T07:34:27.661Z,29.40
2023-05-10T07:36:55.401Z,29.30
2023-05-10T07:39:27.612Z,29.20
2023-05-10T07:41:55.438Z,29.10
2023-05-10T07:44:22.203Z,29.60
2023-05-10T07:46:49.579Z,29.40
2023-05-10T07:49:16.404Z,29.00
2023-05-10T07:51:43.757Z,29.50
2023-05-10T07:54:10.588Z,29.50
2023-05-10T07:56:37.453Z,29.20
2023-05-10T07:59:06.096Z,28.60
2023-05-10T08:01:34.359Z,28.70
2023-05-10T08:04:02.822Z,29.10
2023-05-10T08:06:31.038Z,29.30
2023-05-10T08:08:58.611Z,29.60
2023-05-10T08:11:26.174Z,30.00
2023-05-10T08:13:53.183Z,30.10
2023-05-10T08:16:20.819Z,29.80
2023-05-10T08:18:48.559Z,29.50
2023-05-10T08:21:16.529Z,29.10
2023-05-10T08:26:12.385Z,28.60
2023-05-10T08:28:39.213Z,28.30
2023-05-10T08:31:06.743Z,29.30
2023-05-10T08:33:33.964Z,30.00
2023-05-10T08:36:00.981Z,29.80
2023-05-10T08:38:30.196Z,29.80
2023-05-10T08:41:00.419Z,29.80
2023-05-10T08:43:30.213Z,30.00
2023-05-10T08:45:57.775Z,29.00
2023-05-10T08:48:25.535Z,28.70
2023-05-10T08:50:54.133Z,28.80
2023-05-10T08:53:21.103Z,28.50
2023-05-10T08:55:48.170Z,28.70
2023-05-10T08:58:14.971Z,29.00
2023-05-10T09:00:41.855Z,29.30
2023-05-10T09:03:08.721Z,29.40
2023-05-10T09:05:37.401Z,29.20
2023-05-10T09:08:04.437Z,29.50
2023-05-10T09:10:32.037Z,30.00
2023-05-10T09:12:59.736Z,29.90
2023-05-10T09:15:27.122Z,29.90
2023-05-10T09:17:55.486Z,30.10
2023-05-10T09:20:22.578Z,28.90
2023-05-10T09:22:52.466Z,29.50
2023-05-10T09:25:19.585Z,30.10
2023-05-10T09:27:47.455Z,30.70
2023-05-10T09:30:34.607Z,31.00
2023-05-10T09:33:01.737Z,30.90
2023-05-10T09:35:30.774Z,31.10
2023-05-10T09:38:00.368Z,31.30
2023-05-10T09:40:28.715Z,30.20
2023-05-10T09:43:04.496Z,30.60
2023-05-10T09:45:31.962Z,31.50
2023-05-10T09:47:59.668Z,31.90
2023-05-10T10:05:12.511Z,32.00
2023-05-10T10:07:39.467Z,30.20
2023-05-10T10:10:06.824Z,31.10
2023-05-10T10:12:34.017Z,31.90
2023-05-10T10:17:29.338Z,33.10
2023-05-10T10:19:56.641Z,32.70
2023-05-10T10:22:23.323Z,31.20
2023-05-10T10:24:51.489Z,30.50
2023-05-10T10:27:21.247Z,30.60
2023-05-10T10:29:57.239Z,30.60
2023-05-10T10:32:30.940Z,30.40
2023-05-10T10:34:58.037Z,31.00
2023-05-10T10:37:25.076Z,30.50
2023-05-10T10:39:51.949Z,31.80
2023-05-10T10:42:37.627Z,32.20
2023-05-10T10:47:34.222Z,33.60
2023-05-10T10:52:31.027Z,33.50
2023-05-10T10:55:03.929Z,33.10
2023-05-10T10:57:43.065Z,32.70
2023-05-10T11:00:31.775Z,33.20
2023-05-10T11:03:00.014Z,32.00
2023-05-10T11:05:30.013Z,33.20
2023-05-10T11:10:24.641Z,33.70
2023-05-10T11:15:29.668Z,35.10
2023-05-10T11:17:56.966Z,34.40
2023-05-10T11:20:25.904Z,32.80
2023-05-10T11:22:53.503Z,31.30
2023-05-10T11:25:20.731Z,31.30
2023-05-10T11:27:51.005Z,32.00
2023-05-10T11:30:18.649Z,32.10
2023-05-10T11:32:45.797Z,33.20
2023-05-10T11:35:13.512Z,34.00
2023-05-10T11:37:44.379Z,34.10
2023-05-10T11:40:11.418Z,34.00
2023-05-10T11:42:41.482Z,33.50
2023-05-10T11:45:08.970Z,33.70
2023-05-10T11:47:38.062Z,34.30
2023-05-10T11:50:05.876Z,34.50
2023-05-10T11:52:38.406Z,35.60
2023-05-10T11:55:05.946Z,35.40
2023-05-10T12:00:00.590Z,33.40
2023-05-10T12:02:27.505Z,33.10
2023-05-10T12:04:56.074Z,32.20
2023-05-10T12:07:23.019Z,32.40
2023-05-10T12:10:05.070Z,32.60
2023-05-10T12:12:43.106Z,33.00
2023-05-10T12:15:28.963Z,33.50
2023-05-10T12:17:55.874Z,33.40
2023-05-10T12:20:23.568Z,33.60
2023-05-10T12:22:56.632Z,34.50
2023-05-10T12:25:30.401Z,34.00
2023-05-10T12:27:58.040Z,34.10
2023-05-10T12:30:25.362Z,32.90
2023-05-10T12:32:52.713Z,32.00
2023-05-10T12:35:22.885Z,32.40
2023-05-10T12:37:49.595Z,32.90
2023-05-10T12:40:16.492Z,32.40
2023-05-10T12:42:45.852Z,33.10
2023-05-10T12:45:12.629Z,33.10
2023-05-10T12:47:40.908Z,32.50
2023-05-10T12:50:10.105Z,32.30
2023-05-10T12:52:36.856Z,32.70
2023-05-10T12:55:04.203Z,31.90
2023-05-10T12:57:31.617Z,31.10
2023-05-10T12:59:58.370Z,31.20
2023-05-10T13:02:25.182Z,31.30
2023-05-10T13:04:52.144Z,31.00
2023-05-10T13:07:19.028Z,27.80
2023-05-10T13:09:45.747Z,25.00
2023-05-10T13:12:12.499Z,23.70
2023-05-10T13:14:41.278Z,23.30
2023-05-10T13:17:08.254Z,23.30
2023-05-10T13:19:35.134Z,23.20
2023-05-10T13:22:01.986Z,22.70
2023-05-10T13:24:28.782Z,22.70
2023-05-10T13:26:55.493Z,22.70
2023-05-10T13:29:23.495Z,22.80
2023-05-10T13:31:50.485Z,22.70
2023-05-10T13:34:17.470Z,22.70
2023-05-10T13:36:44.256Z,22.60
2023-05-10T13:39:10.936Z,22.40
2023-05-10T13:41:38.079Z,22.10
2023-05-10T13:44:04.813Z,22.00
2023-05-10T13:46:31.909Z,22.00
2023-05-10T13:48:58.671Z,21.70
2023-05-10T13:51:25.375Z,21.60
2023-05-10T13:53:53.074Z,21.50
2023-05-10T13:56:20.010Z,21.40
2023-05-10T13:58:46.880Z,21.50
2023-05-10T14:01:13.733Z,21.50
2023-05-10T14:03:40.815Z,21.40
2023-05-10T14:06:08.527Z,21.30
2023-05-10T14:08:35.731Z,21.20
2023-05-10T14:11:02.611Z,21.10
2023-05-10T14:13:29.751Z,21.00
2023-05-10T14:15:56.643Z,21.20
2023-05-10T14:18:23.552Z,21.30
2023-05-10T14:20:50.468Z,21.30
2023-05-10T14:23:17.162Z,21.10
2023-05-10T14:25:44.334Z,21.10
2023-05-10T14:28:11.136Z,21.30
2023-05-10T14:30:38.004Z,21.30
2023-05-10T14:33:04.937Z,21.10
2023-05-10T14:35:34.675Z,21.20
2023-05-10T14:38:01.486Z,21.30
2023-05-10T14:40:28.460Z,21.40
2023-05-10T14:42:55.242Z,21.30
2023-05-10T14:45:22.129Z,21.20
2023-05-10T14:47:48.999Z,21.00
2023-05-10T14:50:24.989Z,21.00
2023-05-10T14:53:05.537Z,21.10
2023-05-10T14:55:32.625Z,21.00
2023-05-10T14:57:59.840Z,21.10
2023-05-10T15:00:27.805Z,21.40
2023-05-10T15:02:55.061Z,21.50
2023-05-10T15:05:23.031Z,21.50
2023-05-10T15:07:50.384Z,21.40
2023-05-10T15:10:17.537Z,21.40
2023-05-10T15:12:44.435Z,21.30
2023-05-10T15:15:11.266Z,21.20
2023-05-10T15:17:38.286Z,21.10
2023-05-10T15:20:05.384Z,21.00
2023-05-10T15:22:34.267Z,20.90
2023-05-10T15:25:01.382Z,20.80
2023-05-10T15:27:28.204Z,20.80
2023-05-10T15:29:55.088Z,20.60
2023-05-10T15:32:21.778Z,20.50
2023-05-10T15:34:48.638Z,20.50
2023-05-10T15:37:15.570Z,20.30
2023-05-10T15:39:42.362Z,20.30
2023-05-10T15:42:09.306Z,20.20
2023-05-10T15:44:36.181Z,20.20
2023-05-10T15:47:03.857Z,20.20
2023-05-10T15:49:30.772Z,20.20
2023-05-10T15:51:57.694Z,20.30
2023-05-10T15:54:24.469Z,20.10
2023-05-10T15:56:51.313Z,20.10
2023-05-10T15:59:18.064Z,20.10
2023-05-10T16:01:44.833Z,20.10
2023-05-10T16:04:11.554Z,20.00
2023-05-10T16:06:38.517Z,20.00
2023-05-10T16:09:05.337Z,20.00
2023-05-10T16:11:32.552Z,19.90
2023-05-10T16:13:59.722Z,19.80
2023-05-10T16:16:26.750Z,19.70
2023-05-10T16:18:53.694Z,19.50
2023-05-10T16:21:20.871Z,19.50
2023-05-10T16:23:47.713Z,19.50
2023-05-10T16:26:14.694Z,19.50
2023-05-10T16:28:41.635Z,19.50
2023-05-10T16:31:08.469Z,19.50
2023-05-10T16:33:35.778Z,19.40
2023-05-10T16:36:02.902Z,19.40
2023-05-10T16:38:29.809Z,19.40
2023-05-10T16:40:57.694Z,19.40
2023-05-10T16:43:26.130Z,19.30
2023-05-10T16:45:53.167Z,19.20
2023-05-10T16:48:20.116Z,19.30
2023-05-10T16:50:47.869Z,19.20
2023-05-10T16:53:14.812Z,19.20
2023-05-10T16:55:41.797Z,19.10
2023-05-10T16:58:08.655Z,18.90
2023-05-10T17:00:35.466Z,18.90
2023-05-10T17:03:02.329Z,18.80
2023-05-10T17:05:29.494Z,18.80
2023-05-10T17:07:56.260Z,18.60
2023-05-10T17:10:23.256Z,18.70
2023-05-10T17:12:50.129Z,18.60
2023-05-10T17:15:19.104Z,18.50
2023-05-10T17:17:47.241Z,18.40
2023-05-10T17:20:14.082Z,18.30
2023-05-10T17:22:41.645Z,18.20
2023-05-10T17:25:08.651Z,18.10
2023-05-10T17:27:35.572Z,18.10
2023-05-10T17:30:02.383Z,18.00
2023-05-10T17:32:29.303Z,18.10
2023-05-10T17:34:56.205Z,17.80
2023-05-10T17:37:23.167Z,17.90
2023-05-10T17:39:50.043Z,17.70
2023-05-10T17:42:19.048Z,17.60
2023-05-10T17:44:45.909Z,17.60
2023-05-10T17:47:12.707Z,17.50
2023-05-10T17:49:39.958Z,17.40
2023-05-10T17:52:07.421Z,17.40
2023-05-10T17:54:34.375Z,17.30
2023-05-10T17:57:01.729Z,17.30
2023-05-10T17:59:28.537Z,17.20
2023-05-10T18:01:55.348Z,17.10
2023-05-10T18:04:22.153Z,17.10
2023-05-10T18:06:49.407Z,17.00
2023-05-10T18:09:17.993Z,16.90
2023-05-10T18:11:44.723Z,16.90
2023-05-10T18:14:11.453Z,16.90
2023-05-10T18:16:38.222Z,16.80
2023-05-10T18:19:05.096Z,16.70
2023-05-10T18:21:32.035Z,16.70
2023-05-10T18:23:58.848Z,16.60
2023-05-10T18:26:26.298Z,16.50
2023-05-10T18:28:53.214Z,16.50
2023-05-10T18:31:20.011Z,16.50
2023-05-10T18:33:46.893Z,16.30
2023-05-10T18:36:14.048Z,16.30
2023-05-10T18:38:40.980Z,16.20
2023-05-10T18:41:07.803Z,16.20
2023-05-10T18:43:34.573Z,16.10
2023-05-10T18:46:01.606Z,16.10
2023-05-10T18:48:28.433Z,16.00
2023-05-10T18:50:55.222Z,16.00
2023-05-10T18:53:22.481Z,16.00
2023-05-10T18:55:55.537Z,15.90
2023-05-10T18:58:22.316Z,15.90
2023-05-10T19:00:49.052Z,15.80
2023-05-10T19:03:15.810Z,15.80
2023-05-10T19:05:42.565Z,15.80
2023-05-10T19:08:09.453Z,15.70
2023-05-10T19:10:36.170Z,15.70
2023-05-10T19:13:02.934Z,15.50
2023-05-10T19:15:29.714Z,15.40
2023-05-10T19:17:56.765Z,15.40
2023-05-10T19:20:24.646Z,15.30
2023-05-10T19:23:08.172Z,15.30
2023-05-10T19:25:35.838Z,15.20
2023-05-10T19:28:02.830Z,15.20
2023-05-10T19:30:31.855Z,15.30
2023-05-10T19:32:58.794Z,15.30
2023-05-10T19:35:25.858Z,15.20
2023-05-10T19:37:53.365Z,15.10
2023-05-10T19:40:20.354Z,15.10
2023-05-10T19:42:47.410Z,15.10
2023-05-10T19:45:15.770Z,15.10
2023-05-10T19:47:43.161Z,15.10
2023-05-10T19:50:10.264Z,15.00
2023-05-10T19:52:37.234Z,14.80
2023-05-10T19:55:04.617Z,14.80
2023-05-10T19:57:31.696Z,15.00
2023-05-10T20:00:00.538Z,14.70
2023-05-10T20:02:27.306Z,14.70
2023-05-10T20:04:54.130Z,14.60
2023-05-10T20:07:20.873Z,14.60
2023-05-10T20:09:47.603Z,14.50
2023-05-10T20:12:14.463Z,14.40
2023-05-10T20:14:41.200Z,14.30
2023-05-10T20:17:07.997Z,14.20
2023-05-10T20:19:34.822Z,14.30
